F/V Jimorhan — FGD5815 — position and weather

sailwx.info

Track history (hours):
 
Tides and Currents Weather Stations Pressure Air Temp Water Temp Dewpoint Dewpoint Depression Visibility Wind Speed Wind Dir Waves Ship Positions

F/V Jimorhan

Last reported at 2018-Feb-25 20:23 UTC. Time now 2018-Feb-25 21:57 UTC.
Position N 48°06' W 004°19'.

Length 19 m.

Type: Fishing. MMSI: 227573440.

Date/timePositionNaut miles runAvg speedWind from/ knotsBaromVisibWave heightAir tempDewpointWater temp
2018-Feb-25 20:23N 48°06' W 004°19'3 7.8
2018-Feb-25 20:00N 48°09' W 004°19'2 3.4
2018-Feb-25 19:29N 48°08' W 004°21'4 7.8
2018-Feb-25 18:59N 48°06' W 004°26'0 0.4
2018-Feb-25 18:30N 48°06' W 004°26'1 1.3
2018-Feb-25 18:00N 48°07' W 004°26'4 7.9
2018-Feb-25 17:30N 48°09' W 004°32'2 4.9
2018-Feb-25 17:00N 48°11' W 004°31'2 4.7
2018-Feb-25 16:31N 48°09' W 004°32'5 9.6
2018-Feb-25 15:59N 48°09' W 004°25'4 9.2
2018-Feb-25 15:30N 48°07' W 004°20'  
2018-Feb-22 20:06N 48°06' W 004°19'0 2.4
2018-Feb-22 20:00N 48°06' W 004°20'5 9.3
2018-Feb-22 19:30N 48°11' W 004°20'2 4.6
2018-Feb-22 19:01N 48°11' W 004°24'5 9.4
2018-Feb-22 18:30N 48°09' W 004°30'1 2.5
2018-Feb-22 17:59N 48°09' W 004°32'1 1.1
2018-Feb-22 17:30N 48°09' W 004°31'1 1.8
2018-Feb-22 17:00N 48°09' W 004°32'2 3.5
2018-Feb-22 16:31N 48°09' W 004°30'5 9.8
2018-Feb-22 16:00N 48°07' W 004°23'2 0.1
2018-Feb-21 23:03N 48°06' W 004°20'0 0.1
2018-Feb-21 23:00N 48°06' W 004°20'0 0.0
2018-Feb-21 22:30N 48°06' W 004°20'3 6.6
2018-Feb-21 22:01N 48°09' W 004°20'510.0
2018-Feb-21 21:30N 48°12' W 004°26'2 3.7
2018-Feb-21 21:00N 48°10' W 004°27'0 0.2
2018-Feb-21 20:30N 48°10' W 004°27'5 9.6
2018-Feb-21 20:01N 48°09' W 004°34'510.4
2018-Feb-21 19:30N 48°13' W 004°40'2 3.1
2018-Feb-21 19:00N 48°13' W 004°43'1 1.9
2018-Feb-21 18:30N 48°12' W 004°42'510.6
2018-Feb-21 18:00N 48°10' W 004°35'5 9.9
2018-Feb-21 17:30N 48°09' W 004°28'0 0.1
2018-Feb-21 17:01N 48°09' W 004°28'1 2.6
2018-Feb-21 16:30N 48°09' W 004°29'3 4.9
2018-Feb-21 15:58N 48°11' W 004°27'4 9.5
2018-Feb-21 15:30N 48°07' W 004°23'3 0.2
2018-Feb-20 21:36N 48°06' W 004°19'1 6.8
2018-Feb-20 21:28N 48°07' W 004°20'510.4
2018-Feb-20 21:00N 48°11' W 004°23'2 4.9
2018-Feb-20 20:30N 48°11' W 004°20'1 2.8
2018-Feb-20 20:00N 48°11' W 004°22'4 8.7
2018-Feb-20 19:30N 48°12' W 004°28'5 8.7
2018-Feb-20 18:58N 48°09' W 004°24'2 3.5
2018-Feb-20 18:30N 48°08' W 004°22'1 2.1
2018-Feb-20 18:00N 48°07' W 004°23'1 2.6
2018-Feb-20 17:30N 48°09' W 004°23'2 3.7
2018-Feb-20 17:00N 48°10' W 004°23'5 9.2
2018-Feb-20 16:30N 48°12' W 004°29'2 4.2
2018-Feb-20 16:00N 48°11' W 004°27'510.2
2018-Feb-20 15:30N 48°07' W 004°21'2 0.1
2018-Feb-19 20:12N 48°06' W 004°20'0 0.4
2018-Feb-19 20:00N 48°06' W 004°19'2 4.5
2018-Feb-19 19:30N 48°07' W 004°22'3 5.1
2018-Feb-19 19:01N 48°09' W 004°25'0 0.4
2018-Feb-19 18:30N 48°09' W 004°25'1 2.3
2018-Feb-19 18:00N 48°08' W 004°24'1 1.5
2018-Feb-19 17:29N 48°08' W 004°23'1 1.2
2018-Feb-19 16:59N 48°07' W 004°23'2 3.4
2018-Feb-19 16:28N 48°07' W 004°25'4 7.9
2018-Feb-19 16:00N 48°10' W 004°23'3 4.9
2018-Feb-19 15:29N 48°09' W 004°19'3 7.1
2018-Feb-19 15:00N 48°06' W 004°19'0 0.0
2018-Feb-18 22:23N 48°06' W 004°20'0 0.2
2018-Feb-18 22:00N 48°06' W 004°19'3 6.7
2018-Feb-18 21:31N 48°07' W 004°24'2 2.7
2018-Feb-18 20:57N 48°08' W 004°22'4 8.2
2018-Feb-18 20:30N 48°11' W 004°20'3 6.9
2018-Feb-18 20:01N 48°12' W 004°25'2 3.4
2018-Feb-18 19:30N 48°12' W 004°27'5 9.1
2018-Feb-18 19:00N 48°08' W 004°26'1 2.3
2018-Feb-18 18:30N 48°07' W 004°24'4 7.9
2018-Feb-18 18:00N 48°11' W 004°27'2 3.3
2018-Feb-18 17:30N 48°12' W 004°28'1 2.2
2018-Feb-18 17:00N 48°12' W 004°30'1 1.2
2018-Feb-18 16:30N 48°12' W 004°29'3 5.9
2018-Feb-18 15:58N 48°09' W 004°28'3 5.5
2018-Feb-18 15:29N 48°07' W 004°25'4 8.5
2018-Feb-18 15:00N 48°06' W 004°19'  
2018-Feb-15 22:26N 48°06' W 004°20'0 0.1
2018-Feb-15 22:00N 48°06' W 004°20'0 0.0
2018-Feb-15 21:29N 48°06' W 004°19'0 0.0
2018-Feb-15 20:59N 48°06' W 004°19'2 3.9
2018-Feb-15 20:30N 48°08' W 004°20'  
Track history (hours):
 
Tides and Currents Weather Stations Pressure Air Temp Water Temp Dewpoint Dewpoint Depression Visibility Wind Speed Wind Dir Waves Ship Positions

F/V Jimorhan

Last reported at 2018-Feb-25 20:23 UTC. Time now 2018-Feb-25 21:57 UTC.
Position N 48°06' W 004°19'.

Length 19 m.

Type: Fishing. MMSI: 227573440.

Date/timePositionNaut miles runAvg speedWind from/ knotsBaromVisibWave heightAir tempDewpointWater temp
2018-Feb-25 20:23N 48°06' W 004°19'3 7.8
2018-Feb-25 20:00N 48°09' W 004°19'2 3.4
2018-Feb-25 19:29N 48°08' W 004°21'4 7.8
2018-Feb-25 18:59N 48°06' W 004°26'0 0.4
2018-Feb-25 18:30N 48°06' W 004°26'1 1.3
2018-Feb-25 18:00N 48°07' W 004°26'4 7.9
2018-Feb-25 17:30N 48°09' W 004°32'2 4.9
2018-Feb-25 17:00N 48°11' W 004°31'2 4.7
2018-Feb-25 16:31N 48°09' W 004°32'5 9.6
2018-Feb-25 15:59N 48°09' W 004°25'4 9.2
2018-Feb-25 15:30N 48°07' W 004°20'  
2018-Feb-22 20:06N 48°06' W 004°19'0 2.4
2018-Feb-22 20:00N 48°06' W 004°20'5 9.3
2018-Feb-22 19:30N 48°11' W 004°20'2 4.6
2018-Feb-22 19:01N 48°11' W 004°24'5 9.4
2018-Feb-22 18:30N 48°09' W 004°30'1 2.5
2018-Feb-22 17:59N 48°09' W 004°32'1 1.1
2018-Feb-22 17:30N 48°09' W 004°31'1 1.8
2018-Feb-22 17:00N 48°09' W 004°32'2 3.5
2018-Feb-22 16:31N 48°09' W 004°30'5 9.8
2018-Feb-22 16:00N 48°07' W 004°23'2 0.1
2018-Feb-21 23:03N 48°06' W 004°20'0 0.1
2018-Feb-21 23:00N 48°06' W 004°20'0 0.0
2018-Feb-21 22:30N 48°06' W 004°20'3 6.6
2018-Feb-21 22:01N 48°09' W 004°20'510.0
2018-Feb-21 21:30N 48°12' W 004°26'2 3.7
2018-Feb-21 21:00N 48°10' W 004°27'0 0.2
2018-Feb-21 20:30N 48°10' W 004°27'5 9.6
2018-Feb-21 20:01N 48°09' W 004°34'510.4
2018-Feb-21 19:30N 48°13' W 004°40'2 3.1
2018-Feb-21 19:00N 48°13' W 004°43'1 1.9
2018-Feb-21 18:30N 48°12' W 004°42'510.6
2018-Feb-21 18:00N 48°10' W 004°35'5 9.9
2018-Feb-21 17:30N 48°09' W 004°28'0 0.1
2018-Feb-21 17:01N 48°09' W 004°28'1 2.6
2018-Feb-21 16:30N 48°09' W 004°29'3 4.9
2018-Feb-21 15:58N 48°11' W 004°27'4 9.5
2018-Feb-21 15:30N 48°07' W 004°23'3 0.2
2018-Feb-20 21:36N 48°06' W 004°19'1 6.8
2018-Feb-20 21:28N 48°07' W 004°20'510.4
2018-Feb-20 21:00N 48°11' W 004°23'2 4.9
2018-Feb-20 20:30N 48°11' W 004°20'1 2.8
2018-Feb-20 20:00N 48°11' W 004°22'4 8.7
2018-Feb-20 19:30N 48°12' W 004°28'5 8.7
2018-Feb-20 18:58N 48°09' W 004°24'2 3.5
2018-Feb-20 18:30N 48°08' W 004°22'1 2.1
2018-Feb-20 18:00N 48°07' W 004°23'1 2.6
2018-Feb-20 17:30N 48°09' W 004°23'2 3.7
2018-Feb-20 17:00N 48°10' W 004°23'5 9.2
2018-Feb-20 16:30N 48°12' W 004°29'2 4.2
2018-Feb-20 16:00N 48°11' W 004°27'510.2
2018-Feb-20 15:30N 48°07' W 004°21'2 0.1
2018-Feb-19 20:12N 48°06' W 004°20'0 0.4
2018-Feb-19 20:00N 48°06' W 004°19'2 4.5
2018-Feb-19 19:30N 48°07' W 004°22'3 5.1
2018-Feb-19 19:01N 48°09' W 004°25'0 0.4
2018-Feb-19 18:30N 48°09' W 004°25'1 2.3
2018-Feb-19 18:00N 48°08' W 004°24'1 1.5
2018-Feb-19 17:29N 48°08' W 004°23'1 1.2
2018-Feb-19 16:59N 48°07' W 004°23'2 3.4
2018-Feb-19 16:28N 48°07' W 004°25'4 7.9
2018-Feb-19 16:00N 48°10' W 004°23'3 4.9
2018-Feb-19 15:29N 48°09' W 004°19'3 7.1
2018-Feb-19 15:00N 48°06' W 004°19'0 0.0
2018-Feb-18 22:23N 48°06' W 004°20'0 0.2
2018-Feb-18 22:00N 48°06' W 004°19'3 6.7
2018-Feb-18 21:31N 48°07' W 004°24'2 2.7
2018-Feb-18 20:57N 48°08' W 004°22'4 8.2
2018-Feb-18 20:30N 48°11' W 004°20'3 6.9
2018-Feb-18 20:01N 48°12' W 004°25'2 3.4
2018-Feb-18 19:30N 48°12' W 004°27'5 9.1
2018-Feb-18 19:00N 48°08' W 004°26'1 2.3
2018-Feb-18 18:30N 48°07' W 004°24'4 7.9
2018-Feb-18 18:00N 48°11' W 004°27'2 3.3
2018-Feb-18 17:30N 48°12' W 004°28'1 2.2
2018-Feb-18 17:00N 48°12' W 004°30'1 1.2
2018-Feb-18 16:30N 48°12' W 004°29'3 5.9
2018-Feb-18 15:58N 48°09' W 004°28'3 5.5
2018-Feb-18 15:29N 48°07' W 004°25'4 8.5
2018-Feb-18 15:00N 48°06' W 004°19'  
2018-Feb-15 22:26N 48°06' W 004°20'0 0.1
2018-Feb-15 22:00N 48°06' W 004°20'0 0.0
2018-Feb-15 21:29N 48°06' W 004°19'0 0.0
2018-Feb-15 20:59N 48°06' W 004°19'2 3.9
2018-Feb-15 20:30N 48°08' W 004°20'  

Dump ship's entire track history